createdAt,value
2019-05-03T00:02:28.386Z,35.70
2019-05-03T00:05:26.672Z,29.27
2019-05-03T00:08:02.549Z,29.57
2019-05-03T00:10:31.915Z,31.07
2019-05-03T00:13:01.934Z,30.97
2019-05-03T00:15:42.812Z,32.97
2019-05-03T00:18:11.776Z,35.77
2019-05-03T00:20:42.071Z,33.97
2019-05-03T00:23:12.214Z,34.93
2019-05-03T00:25:41.858Z,32.50
2019-05-03T00:28:11.010Z,27.77
2019-05-03T00:30:40.046Z,33.23
2019-05-03T00:33:08.897Z,29.20
2019-05-03T00:36:06.210Z,28.60
2019-05-03T00:38:35.586Z,28.70
2019-05-03T00:41:04.678Z,28.63
2019-05-03T00:43:33.918Z,28.37
2019-05-03T00:46:02.957Z,33.90
2019-05-03T00:48:32.614Z,30.27
2019-05-03T00:51:03.457Z,30.60
2019-05-03T00:53:32.635Z,34.57
2019-05-03T00:56:01.854Z,37.93
2019-05-03T00:58:31.832Z,29.20
2019-05-03T01:01:02.725Z,37.83
2019-05-03T01:03:32.554Z,33.90
2019-05-03T01:06:02.303Z,33.33
2019-05-03T01:08:32.717Z,37.77
2019-05-03T01:11:02.139Z,32.17
2019-05-03T01:13:32.037Z,37.70
2019-05-03T01:16:06.518Z,33.17
2019-05-03T01:18:36.065Z,36.27
2019-05-03T01:21:05.421Z,38.30
2019-05-03T01:23:34.663Z,38.20
2019-05-03T01:26:03.673Z,33.53
2019-05-03T01:28:32.617Z,36.07
2019-05-03T01:31:02.603Z,34.73
2019-05-03T01:33:32.239Z,37.40
2019-05-03T01:36:02.751Z,32.97
2019-05-03T01:38:32.206Z,36.17
2019-05-03T01:41:01.843Z,33.90
2019-05-03T01:43:31.766Z,38.27
2019-05-03T01:46:20.232Z,35.30
2019-05-03T01:48:56.010Z,48.67
2019-05-03T01:51:42.039Z,40.30
2019-05-03T01:54:12.252Z,40.97
2019-05-03T01:56:49.988Z,39.03
2019-05-03T01:59:12.355Z,39.47
2019-05-03T02:01:51.714Z,38.40
2019-05-03T02:04:28.497Z,38.20
2019-05-03T02:06:57.529Z,43.40
2019-05-03T02:09:26.453Z,43.43
2019-05-03T02:11:55.390Z,45.77
2019-05-03T02:14:24.382Z,45.43
2019-05-03T02:16:53.327Z,36.23
2019-05-03T02:19:22.181Z,35.10
2019-05-03T02:21:52.359Z,39.33
2019-05-03T02:24:22.106Z,37.67
2019-05-03T02:26:52.930Z,35.80
2019-05-03T02:29:22.019Z,34.70
2019-05-03T02:31:53.453Z,32.67
2019-05-03T02:34:23.933Z,41.70
2019-05-03T02:36:53.700Z,39.13
2019-05-03T02:39:23.377Z,39.80
2019-05-03T02:41:59.797Z,44.87
2019-05-03T02:44:26.709Z,46.43
2019-05-03T02:47:15.762Z,41.97
2019-05-03T02:49:47.857Z,55.83
2019-05-03T02:52:37.008Z,50.57
2019-05-03T02:55:09.640Z,51.20
2019-05-03T02:57:38.942Z,55.03
2019-05-03T03:00:12.640Z,55.43
2019-05-03T03:02:41.888Z,54.20
2019-05-03T03:05:12.230Z,56.83
2019-05-03T03:07:46.901Z,58.27
2019-05-03T03:10:16.683Z,53.47
2019-05-03T03:12:47.580Z,62.60
2019-05-03T03:15:17.381Z,68.47
2019-05-03T03:17:49.660Z,62.80
2019-05-03T03:20:19.058Z,64.93
2019-05-03T03:22:50.572Z,72.67
2019-05-03T03:25:26.048Z,71.23
2019-05-03T03:27:59.616Z,57.07
2019-05-03T03:30:51.283Z,58.97
2019-05-03T03:33:20.238Z,72.73
2019-05-03T03:35:49.643Z,62.40
2019-05-03T03:38:19.391Z,69.23
2019-05-03T03:40:49.670Z,74.90
2019-05-03T03:43:21.763Z,73.07
2019-05-03T03:45:51.852Z,72.17
2019-05-03T03:48:21.179Z,79.97
2019-05-03T03:50:52.550Z,82.00
2019-05-03T03:53:26.437Z,68.83
2019-05-03T03:55:56.954Z,74.40
2019-05-03T03:58:27.089Z,81.40
2019-05-03T04:00:56.478Z,81.80
2019-05-03T04:03:26.274Z,84.87
2019-05-03T04:05:55.599Z,93.63
2019-05-03T04:08:25.244Z,89.83
2019-05-03T04:10:55.819Z,90.23
2019-05-03T04:13:25.731Z,94.80
2019-05-03T04:16:12.844Z,91.97
2019-05-03T04:19:05.779Z,84.43
2019-05-03T04:21:35.883Z,83.93
2019-05-03T04:24:06.030Z,92.90
2019-05-03T04:26:35.882Z,91.03
2019-05-03T04:29:05.503Z,80.67
2019-05-03T04:31:36.789Z,74.53
2019-05-03T04:34:05.535Z,96.33
2019-05-03T04:36:35.760Z,79.70
2019-05-03T04:39:06.686Z,87.03
2019-05-03T04:41:35.887Z,88.93
2019-05-03T04:44:06.342Z,79.77
2019-05-03T04:46:35.942Z,91.93
2019-05-03T04:49:05.751Z,90.37
2019-05-03T04:51:35.271Z,79.03
2019-05-03T04:54:22.284Z,88.43
2019-05-03T04:56:51.210Z,77.53
2019-05-03T04:59:20.151Z,76.50
2019-05-03T05:01:49.190Z,73.13
2019-05-03T05:04:18.190Z,82.23
2019-05-03T05:06:47.110Z,70.80
2019-05-03T05:09:16.374Z,82.03
2019-05-03T05:11:45.965Z,69.40
2019-05-03T05:14:15.418Z,67.60
2019-05-03T05:16:46.537Z,66.23
2019-05-03T05:19:18.747Z,61.17
2019-05-03T05:21:51.416Z,61.17
2019-05-03T05:24:20.353Z,56.40
2019-05-03T05:27:08.417Z,63.53
2019-05-03T05:29:38.281Z,59.10
2019-05-03T05:32:07.361Z,72.30
2019-05-03T05:34:36.603Z,67.90
2019-05-03T05:37:05.927Z,66.80
2019-05-03T05:39:35.678Z,69.70
2019-05-03T05:42:04.767Z,75.70
2019-05-03T05:44:35.237Z,74.90
2019-05-03T05:47:27.473Z,74.17
2019-05-03T05:50:00.749Z,67.33
2019-05-03T05:52:29.622Z,69.70
2019-05-03T05:55:08.210Z,77.40
2019-05-03T05:58:01.648Z,74.17
2019-05-03T06:00:29.481Z,72.07
2019-05-03T06:02:58.815Z,67.60
2019-05-03T06:05:27.822Z,76.60
2019-05-03T06:08:05.037Z,77.77
2019-05-03T06:11:11.897Z,72.63
2019-05-03T06:13:46.278Z,92.87
2019-05-03T06:16:45.051Z,73.47
2019-05-03T06:19:27.017Z,85.83
2019-05-03T06:22:00.951Z,81.93
2019-05-03T06:24:45.304Z,83.30
2019-05-03T06:27:20.497Z,83.93
2019-05-03T06:29:50.899Z,76.30
2019-05-03T06:32:27.098Z,91.23
2019-05-03T06:34:55.966Z,83.03
2019-05-03T06:37:27.190Z,73.87
2019-05-03T06:39:56.357Z,72.50
2019-05-03T06:42:25.551Z,74.73
2019-05-03T06:44:54.744Z,68.93
2019-05-03T06:47:25.309Z,72.27
2019-05-03T06:49:55.258Z,62.70
2019-05-03T06:52:29.054Z,64.83
2019-05-03T06:54:55.526Z,60.13
2019-05-03T06:57:25.373Z,66.67
2019-05-03T07:00:05.215Z,68.17
2019-05-03T07:02:40.213Z,74.23
2019-05-03T07:05:16.322Z,63.07
2019-05-03T07:07:54.731Z,57.97
2019-05-03T07:10:30.641Z,54.90
2019-05-03T07:13:00.466Z,52.73
2019-05-03T07:15:29.869Z,53.03
2019-05-03T07:17:58.878Z,57.20
2019-05-03T07:20:27.918Z,51.90
2019-05-03T07:22:56.960Z,60.80
2019-05-03T07:25:26.253Z,52.13
2019-05-03T07:27:55.824Z,60.00
2019-05-03T07:30:25.322Z,52.40
2019-05-03T07:33:01.750Z,51.50
2019-05-03T07:35:30.855Z,50.13
2019-05-03T07:37:59.712Z,52.87
2019-05-03T07:40:28.725Z,54.23
2019-05-03T07:42:57.656Z,50.67
2019-05-03T07:45:26.518Z,39.53
2019-05-03T07:47:55.962Z,45.73
2019-05-03T07:50:26.015Z,42.00
2019-05-03T07:52:55.785Z,38.17
2019-05-03T07:55:42.991Z,39.50
2019-05-03T07:58:15.314Z,39.23
2019-05-03T08:00:44.755Z,34.17
2019-05-03T08:03:15.484Z,33.87
2019-05-03T08:05:45.485Z,31.73
2019-05-03T08:08:15.110Z,34.27
2019-05-03T08:10:45.023Z,34.83
2019-05-03T08:13:15.135Z,31.60
2019-05-03T08:15:45.242Z,30.27
2019-05-03T08:18:15.286Z,27.52
2019-05-03T08:20:45.294Z,21.93
2019-05-03T08:23:26.841Z,25.45
2019-05-03T08:25:45.198Z,25.43
2019-05-03T08:28:14.814Z,21.25
2019-05-03T08:31:01.682Z,25.08
2019-05-03T08:33:44.812Z,25.65
2019-05-03T08:36:15.638Z,25.70
2019-05-03T08:38:45.414Z,24.82
2019-05-03T08:41:16.934Z,23.25
2019-05-03T08:43:45.797Z,20.32
2019-05-03T08:46:14.936Z,22.40
2019-05-03T08:48:45.588Z,20.35
2019-05-03T08:51:14.989Z,25.75
2019-05-03T08:53:45.930Z,21.73
2019-05-03T08:56:15.698Z,19.12
2019-05-03T08:58:45.208Z,19.23
2019-05-03T09:01:15.003Z,22.15
2019-05-03T09:03:45.787Z,19.12
2019-05-03T09:06:15.493Z,17.60
2019-05-03T09:08:45.775Z,20.30
2019-05-03T09:11:15.722Z,19.57
2019-05-03T09:13:51.354Z,18.42
2019-05-03T09:16:20.594Z,18.15
2019-05-03T09:18:49.722Z,18.85
2019-05-03T09:21:18.726Z,18.40
2019-05-03T09:23:47.702Z,16.65
2019-05-03T09:26:17.229Z,18.60
2019-05-03T09:28:46.240Z,17.82
2019-05-03T09:31:15.651Z,18.50
2019-05-03T09:33:45.302Z,15.88
2019-05-03T09:36:14.817Z,20.10
2019-05-03T09:38:45.743Z,20.02
2019-05-03T09:41:34.739Z,17.27
2019-05-03T09:44:04.760Z,17.30
2019-05-03T09:46:35.434Z,17.90
2019-05-03T09:49:13.220Z,22.62
2019-05-03T09:51:35.234Z,22.20
2019-05-03T09:54:14.891Z,21.25
2019-05-03T09:57:02.317Z,21.65
2019-05-03T09:59:31.371Z,20.05
2019-05-03T10:02:01.997Z,18.48
2019-05-03T10:04:31.015Z,16.77
2019-05-03T10:07:00.019Z,14.10
2019-05-03T10:09:29.391Z,13.08
2019-05-03T10:11:58.486Z,13.83
2019-05-03T10:14:27.502Z,17.45
2019-05-03T10:17:08.575Z,11.38
2019-05-03T10:19:40.284Z,12.13
2019-05-03T10:22:08.999Z,9.78
2019-05-03T10:24:37.884Z,10.72
2019-05-03T10:27:06.885Z,10.75
2019-05-03T10:29:36.058Z,10.80
2019-05-03T10:32:10.590Z,10.55
2019-05-03T10:34:41.194Z,11.60
2019-05-03T10:37:24.867Z,10.20
2019-05-03T10:39:55.939Z,10.68
2019-05-03T10:42:24.511Z,10.10
2019-05-03T10:44:55.530Z,11.53
2019-05-03T10:47:25.428Z,12.15
2019-05-03T10:49:55.089Z,9.68
2019-05-03T10:52:29.078Z,11.45
2019-05-03T10:54:58.322Z,12.78
2019-05-03T10:57:29.082Z,12.88
2019-05-03T10:59:57.954Z,11.45
2019-05-03T11:02:47.170Z,13.25
2019-05-03T11:05:16.186Z,13.32
2019-05-03T11:07:45.229Z,12.07
2019-05-03T11:10:14.736Z,13.28
2019-05-03T11:12:43.862Z,12.95
2019-05-03T11:15:14.996Z,13.75
2019-05-03T11:17:45.515Z,13.07
2019-05-03T11:20:28.217Z,13.60
2019-05-03T11:22:46.710Z,13.00
2019-05-03T11:25:15.653Z,14.00
2019-05-03T11:27:52.130Z,13.73
2019-05-03T11:30:21.131Z,14.67
2019-05-03T11:32:57.451Z,15.93
2019-05-03T11:35:41.053Z,11.78
2019-05-03T11:38:30.921Z,14.65
2019-05-03T11:41:00.345Z,12.05
2019-05-03T11:43:29.382Z,12.05
2019-05-03T11:45:58.297Z,11.90
2019-05-03T11:48:27.163Z,10.45
2019-05-03T11:50:56.165Z,9.55
2019-05-03T11:53:25.299Z,10.43
2019-05-03T11:55:55.234Z,10.45
2019-05-03T11:58:27.014Z,10.65
2019-05-03T12:01:15.390Z,10.63
2019-05-03T12:03:57.987Z,7.90
2019-05-03T12:06:26.839Z,9.90
2019-05-03T12:08:56.098Z,9.40
2019-05-03T12:11:25.973Z,10.72
2019-05-03T12:14:11.165Z,8.43
2019-05-03T12:17:12.033Z,11.30
2019-05-03T12:19:17.829Z,14.58
2019-05-03T12:21:45.590Z,12.60
2019-05-03T12:24:15.929Z,8.78
2019-05-03T12:26:47.029Z,9.93
2019-05-03T12:29:16.386Z,7.78
2019-05-03T12:31:45.699Z,9.68
2019-05-03T12:34:15.958Z,9.95
2019-05-03T12:36:44.954Z,9.10
2019-05-03T12:39:24.077Z,7.65
2019-05-03T12:41:47.906Z,10.45
2019-05-03T12:44:15.554Z,10.18
2019-05-03T12:46:44.983Z,9.13
2019-05-03T12:49:15.539Z,9.28
2019-05-03T12:51:45.319Z,7.97
2019-05-03T12:54:15.232Z,11.40
2019-05-03T12:56:45.350Z,7.95
2019-05-03T12:59:41.059Z,10.65
2019-05-03T13:02:15.579Z,6.95
2019-05-03T13:04:44.819Z,7.58
2019-05-03T13:07:28.402Z,6.30
2019-05-03T13:09:57.618Z,6.87
2019-05-03T13:12:28.591Z,7.30
2019-05-03T13:14:57.607Z,7.67
2019-05-03T13:17:36.649Z,6.85
2019-05-03T13:20:11.047Z,5.90
2019-05-03T13:22:40.053Z,6.53
2019-05-03T13:25:28.125Z,5.95
2019-05-03T13:27:57.047Z,7.87
2019-05-03T13:30:26.262Z,4.20
2019-05-03T13:32:55.514Z,5.12
2019-05-03T13:35:25.681Z,4.65
2019-05-03T13:37:55.651Z,5.95
2019-05-03T13:40:25.088Z,6.90
2019-05-03T13:43:01.722Z,5.30
2019-05-03T13:45:25.004Z,3.70
2019-05-03T13:47:55.245Z,2.52
2019-05-03T13:50:24.709Z,3.30
2019-05-03T13:52:55.795Z,2.40
2019-05-03T13:55:44.510Z,1.92
2019-05-03T13:58:14.741Z,4.78
2019-05-03T14:00:45.365Z,1.87
2019-05-03T14:03:15.192Z,2.92
2019-05-03T14:05:44.767Z,6.12
2019-05-03T14:08:15.651Z,2.50
2019-05-03T14:10:45.609Z,1.95
2019-05-03T14:13:14.948Z,1.85
2019-05-03T14:15:45.318Z,3.22
2019-05-03T14:18:15.213Z,1.42
2019-05-03T14:20:55.189Z,1.85
2019-05-03T14:23:25.315Z,2.33
2019-05-03T14:25:55.264Z,1.77
2019-05-03T14:28:25.235Z,1.57
2019-05-03T14:30:54.903Z,2.47
2019-05-03T14:33:24.989Z,1.60
2019-05-03T14:35:55.254Z,1.75
2019-05-03T14:38:25.434Z,2.72
2019-05-03T14:40:55.156Z,4.97
2019-05-03T14:43:24.910Z,1.70
2019-05-03T14:45:55.031Z,2.25
2019-05-03T14:48:24.812Z,1.87
2019-05-03T14:50:54.939Z,1.55
2019-05-03T14:53:25.477Z,1.57
2019-05-03T14:56:05.392Z,3.10
2019-05-03T14:58:58.927Z,1.70
2019-05-03T15:01:42.982Z,1.40
2019-05-03T15:04:11.991Z,1.63
2019-05-03T15:06:41.206Z,1.77
2019-05-03T15:09:10.463Z,3.42
2019-05-03T15:11:39.324Z,2.98
2019-05-03T15:14:08.346Z,1.70
2019-05-03T15:16:37.351Z,3.05
2019-05-03T15:19:12.269Z,2.05
2019-05-03T15:21:41.313Z,1.62
2019-05-03T15:24:10.185Z,1.57
2019-05-03T15:26:39.184Z,2.92
2019-05-03T15:29:08.110Z,2.83
2019-05-03T15:31:36.989Z,4.70
2019-05-03T15:34:06.201Z,4.03
2019-05-03T15:36:35.217Z,3.10
2019-05-03T15:39:05.666Z,4.05
2019-05-03T15:41:35.921Z,2.30
2019-05-03T15:44:27.353Z,1.70
2019-05-03T15:47:21.232Z,2.30
2019-05-03T15:49:50.086Z,2.15
2019-05-03T15:52:19.093Z,4.00
2019-05-03T15:54:51.090Z,3.20
2019-05-03T15:57:19.970Z,2.20
2019-05-03T15:59:48.821Z,2.57
2019-05-03T16:02:17.755Z,1.80
2019-05-03T16:04:46.686Z,2.47
2019-05-03T16:07:27.190Z,1.85
2019-05-03T16:09:56.617Z,2.33
2019-05-03T16:12:25.474Z,2.23
2019-05-03T16:14:55.189Z,3.63
2019-05-03T16:17:24.498Z,3.42
2019-05-03T16:19:55.589Z,4.50
2019-05-03T16:22:27.328Z,3.60
2019-05-03T16:24:56.485Z,3.12
2019-05-03T16:27:47.634Z,2.35
2019-05-03T16:30:37.862Z,2.60
2019-05-03T16:33:07.422Z,3.77
2019-05-03T16:35:37.862Z,4.85
2019-05-03T16:38:07.374Z,4.20
2019-05-03T16:40:36.371Z,3.17
2019-05-03T16:43:05.617Z,3.43
2019-05-03T16:45:35.055Z,3.03
2019-05-03T16:48:04.885Z,5.57
2019-05-03T16:50:34.593Z,3.40
2019-05-03T16:53:05.456Z,5.37
2019-05-03T16:55:35.137Z,4.63
2019-05-03T16:58:04.614Z,4.37
2019-05-03T17:00:35.280Z,5.70
2019-05-03T17:03:05.645Z,3.97
2019-05-03T17:06:03.309Z,4.13
2019-05-03T17:08:46.785Z,3.33
2019-05-03T17:11:17.358Z,4.50
2019-05-03T17:13:48.007Z,3.90
2019-05-03T17:16:17.096Z,3.83
2019-05-03T17:18:45.966Z,4.87
2019-05-03T17:21:16.360Z,5.83
2019-05-03T17:23:45.528Z,5.37
2019-05-03T17:26:14.925Z,3.67
2019-05-03T17:28:45.130Z,4.13
2019-05-03T17:31:13.976Z,3.97
2019-05-03T17:33:51.456Z,4.23
2019-05-03T17:36:13.489Z,4.57
2019-05-03T17:38:44.352Z,5.50
2019-05-03T17:41:38.718Z,8.23
2019-05-03T17:44:11.802Z,4.37
2019-05-03T17:46:40.945Z,5.73
2019-05-03T17:49:10.278Z,4.37
2019-05-03T17:52:07.450Z,5.07
2019-05-03T17:54:58.532Z,5.23
2019-05-03T17:57:52.315Z,4.43
2019-05-03T18:00:32.662Z,4.97
2019-05-03T18:03:02.270Z,6.17
2019-05-03T18:05:36.921Z,5.33
2019-05-03T18:08:31.329Z,4.60
2019-05-03T18:11:25.409Z,6.13
2019-05-03T18:13:55.179Z,5.00
2019-05-03T18:16:24.492Z,6.30
2019-05-03T18:18:54.767Z,4.87
2019-05-03T18:21:24.440Z,4.90
2019-05-03T18:23:54.555Z,6.53
2019-05-03T18:26:24.935Z,4.90
2019-05-03T18:28:55.303Z,7.80
2019-05-03T18:31:25.126Z,4.60
2019-05-03T18:33:54.759Z,4.80
2019-05-03T18:36:25.295Z,5.37
2019-05-03T18:38:55.287Z,4.17
2019-05-03T18:41:25.443Z,6.53
2019-05-03T18:44:14.806Z,7.70
2019-05-03T18:46:48.286Z,4.87
2019-05-03T18:49:17.294Z,6.37
2019-05-03T18:51:46.287Z,7.00
2019-05-03T18:54:15.648Z,4.23
2019-05-03T18:56:44.759Z,3.53
2019-05-03T18:59:14.647Z,4.40
2019-05-03T19:01:45.212Z,5.13
2019-05-03T19:04:32.406Z,5.17
2019-05-03T19:07:03.875Z,4.77
2019-05-03T19:09:38.868Z,5.17
2019-05-03T19:12:39.262Z,5.37
2019-05-03T19:15:08.654Z,3.83
2019-05-03T19:17:49.898Z,4.17
2019-05-03T19:20:19.161Z,7.07
2019-05-03T19:22:48.322Z,5.27
2019-05-03T19:25:17.312Z,8.70
2019-05-03T19:27:46.524Z,5.20
2019-05-03T19:30:16.048Z,6.07
2019-05-03T19:32:45.154Z,6.23
2019-05-03T19:35:15.707Z,84.67
2019-05-03T19:37:46.614Z,7.27
2019-05-03T19:40:16.166Z,5.23
2019-05-03T19:42:45.018Z,6.30
2019-05-03T19:45:15.205Z,5.87
2019-05-03T19:47:44.752Z,5.67
2019-05-03T19:50:15.757Z,11.33
2019-05-03T19:53:08.113Z,6.90
2019-05-03T19:55:38.568Z,6.40
2019-05-03T19:58:07.728Z,6.17
2019-05-03T20:00:44.985Z,6.73
2019-05-03T20:03:21.446Z,4.80
2019-05-03T20:06:06.944Z,6.63
2019-05-03T20:08:44.453Z,6.00
2019-05-03T20:11:15.158Z,7.23
2019-05-03T20:13:48.041Z,8.90
2019-05-03T20:16:18.333Z,6.90
2019-05-03T20:18:47.741Z,7.23
2019-05-03T20:21:17.020Z,10.30
2019-05-03T20:23:47.242Z,13.33
2019-05-03T20:26:35.864Z,6.63
2019-05-03T20:29:05.035Z,8.67
2019-05-03T20:31:35.387Z,6.13
2019-05-03T20:34:05.390Z,6.80
2019-05-03T20:36:35.169Z,6.37
2019-05-03T20:39:06.518Z,8.90
2019-05-03T20:41:37.171Z,7.27
2019-05-03T20:44:25.223Z,8.47
2019-05-03T20:47:14.845Z,7.97
2019-05-03T20:49:45.540Z,8.50
2019-05-03T20:52:15.275Z,11.80
2019-05-03T20:54:44.841Z,9.23
2019-05-03T20:57:14.478Z,11.60
2019-05-03T20:59:48.383Z,8.60
2019-05-03T21:02:15.350Z,8.07
2019-05-03T21:04:44.345Z,8.03
2019-05-03T21:07:15.166Z,10.13
2019-05-03T21:09:45.555Z,8.13
2019-05-03T21:12:14.897Z,10.23
2019-05-03T21:14:45.273Z,9.57
2019-05-03T21:17:36.755Z,8.83
2019-05-03T21:20:14.785Z,11.70
2019-05-03T21:22:47.022Z,11.50
2019-05-03T21:25:24.949Z,9.43
2019-05-03T21:27:55.500Z,13.57
2019-05-03T21:30:24.731Z,15.90
2019-05-03T21:32:54.856Z,13.63
2019-05-03T21:35:44.720Z,15.80
2019-05-03T21:38:13.666Z,11.00
2019-05-03T21:40:42.741Z,9.43
2019-05-03T21:43:11.737Z,10.67
2019-05-03T21:45:46.422Z,9.90
2019-05-03T21:48:19.672Z,11.07
2019-05-03T21:50:48.752Z,12.00
2019-05-03T21:53:17.601Z,11.00
2019-05-03T21:55:46.466Z,11.70
2019-05-03T21:58:16.535Z,10.27
2019-05-03T22:00:50.330Z,15.30
2019-05-03T22:03:19.331Z,11.90
2019-05-03T22:05:54.913Z,10.63
2019-05-03T22:08:18.954Z,12.27
2019-05-03T22:10:47.898Z,12.03
2019-05-03T22:13:17.298Z,12.83
2019-05-03T22:15:50.546Z,11.17
2019-05-03T22:18:27.155Z,13.47
2019-05-03T22:21:13.844Z,13.87
2019-05-03T22:24:04.848Z,15.17
2019-05-03T22:26:54.572Z,14.03
2019-05-03T22:29:25.416Z,11.87
2019-05-03T22:31:54.963Z,14.13
2019-05-03T22:34:25.711Z,11.97
2019-05-03T22:36:55.062Z,12.70
2019-05-03T22:39:24.938Z,13.70
2019-05-03T22:41:54.569Z,13.00
2019-05-03T22:44:25.345Z,13.03
2019-05-03T22:46:55.169Z,12.33
2019-05-03T22:49:26.065Z,11.77
2019-05-03T22:51:55.186Z,13.57
2019-05-03T22:54:24.619Z,12.60
2019-05-03T22:56:55.478Z,13.10
2019-05-03T22:59:25.197Z,14.63
2019-05-03T23:01:55.112Z,13.47
2019-05-03T23:04:25.270Z,14.10
2019-05-03T23:06:55.788Z,12.70
2019-05-03T23:09:25.005Z,15.57
2019-05-03T23:12:13.296Z,11.07
2019-05-03T23:14:42.165Z,16.80
2019-05-03T23:17:11.011Z,13.67
2019-05-03T23:19:42.337Z,13.43
2019-05-03T23:22:18.726Z,10.60
2019-05-03T23:24:47.556Z,11.47
2019-05-03T23:27:16.390Z,13.37
2019-05-03T23:29:45.493Z,13.13
2019-05-03T23:32:15.247Z,13.40
2019-05-03T23:34:46.235Z,14.27
2019-05-03T23:37:15.105Z,15.00
2019-05-03T23:39:44.702Z,14.27
2019-05-03T23:42:15.492Z,14.67
2019-05-03T23:44:45.602Z,13.17
2019-05-03T23:47:22.679Z,13.57
2019-05-03T23:49:51.508Z,13.27
2019-05-03T23:52:38.736Z,15.37
2019-05-03T23:55:25.107Z,11.70
2019-05-03T23:57:55.435Z,13.77
